createdAt,value
2022-12-14T00:00:55.392Z,100877.34
2022-12-14T00:03:29.257Z,100882.84
2022-12-14T00:06:15.129Z,100876.88
2022-12-14T00:08:49.815Z,100875.91
2022-12-14T00:11:24.871Z,100869.03
2022-12-14T00:14:00.222Z,100872.06
2022-12-14T00:16:34.281Z,100865.72
2022-12-14T00:19:06.269Z,100862.94
2022-12-14T00:21:38.287Z,100866.81
2022-12-14T00:24:10.573Z,100853.25
2022-12-14T00:26:42.530Z,100856.94
2022-12-14T00:29:14.543Z,100863.34
2022-12-14T00:31:48.839Z,100855.88
2022-12-14T00:34:21.120Z,100850.78
2022-12-14T00:36:53.155Z,100853.25
2022-12-14T00:39:25.124Z,100848.13
2022-12-14T00:41:57.357Z,100848.22
2022-12-14T00:44:29.267Z,100847.16
2022-12-14T00:47:01.203Z,100847.78
2022-12-14T00:49:33.159Z,100850.25
2022-12-14T00:52:05.379Z,100857.09
2022-12-14T00:54:37.401Z,100850.41
2022-12-14T00:57:10.424Z,100850.00
2022-12-14T00:59:42.445Z,100849.91
2022-12-14T01:02:14.506Z,100843.94
2022-12-14T01:04:46.626Z,100848.31
2022-12-14T01:07:18.583Z,100835.88
2022-12-14T01:09:50.614Z,100845.75
2022-12-14T01:12:22.586Z,100830.06
2022-12-14T01:14:54.633Z,100834.38
2022-12-14T01:17:26.600Z,100827.28
2022-12-14T01:19:58.680Z,100826.63
2022-12-14T01:22:30.658Z,100820.88
2022-12-14T01:25:03.425Z,100829.50
2022-12-14T01:27:35.588Z,100838.81
2022-12-14T01:30:08.237Z,100826.44
2022-12-14T01:32:40.185Z,100828.94
2022-12-14T01:35:12.191Z,100829.00
2022-12-14T01:37:44.178Z,100839.53
2022-12-14T01:40:17.041Z,100829.59
2022-12-14T01:42:49.038Z,100831.34
2022-12-14T01:45:23.262Z,100824.69
2022-12-14T01:47:58.908Z,100817.59
2022-12-14T01:50:35.831Z,100816.78
2022-12-14T01:53:17.907Z,100812.09
2022-12-14T01:55:55.217Z,100817.28
2022-12-14T01:58:28.998Z,100808.59
2022-12-14T02:01:02.804Z,100808.59
2022-12-14T02:03:40.402Z,100806.44
2022-12-14T02:06:27.231Z,100811.16
2022-12-14T02:08:59.206Z,100813.31
2022-12-14T02:11:56.192Z,100805.56
2022-12-14T02:14:28.445Z,100806.44
2022-12-14T02:17:00.987Z,100807.41
2022-12-14T02:19:33.328Z,100797.59
2022-12-14T02:22:52.105Z,100784.69
2022-12-14T02:25:55.220Z,100776.00
2022-12-14T02:29:10.242Z,100782.53
2022-12-14T02:31:54.113Z,100779.16
2022-12-14T02:35:08.860Z,100774.69
2022-12-14T02:38:27.761Z,100768.38
2022-12-14T02:42:00.558Z,100766.28
2022-12-14T02:45:45.559Z,100765.34
2022-12-14T02:49:01.707Z,100765.25
2022-12-14T02:52:04.798Z,100760.31
2022-12-14T02:54:49.366Z,100758.25
2022-12-14T02:58:01.910Z,100754.81
2022-12-14T03:00:37.107Z,100743.66
2022-12-14T03:03:09.667Z,100743.91
2022-12-14T03:05:41.715Z,100749.19
2022-12-14T03:08:16.979Z,100756.91
2022-12-14T03:10:55.409Z,100749.00
2022-12-14T03:13:38.383Z,100740.66
2022-12-14T03:16:32.610Z,100739.84
2022-12-14T03:19:24.927Z,100731.31
2022-12-14T03:22:03.611Z,100738.81
2022-12-14T03:24:44.105Z,100733.78
2022-12-14T03:27:31.390Z,100725.00
2022-12-14T03:30:11.762Z,100730.91
2022-12-14T03:32:50.923Z,100718.31
2022-12-14T03:35:33.578Z,100713.22
2022-12-14T03:38:21.405Z,100710.44
2022-12-14T03:41:07.073Z,100716.31
2022-12-14T03:44:18.222Z,100700.78
2022-12-14T03:47:04.380Z,100704.50
2022-12-14T03:50:02.135Z,100700.38
2022-12-14T03:52:45.813Z,100697.25
2022-12-14T03:55:49.490Z,100696.56
2022-12-14T03:58:57.153Z,100687.38
2022-12-14T04:02:08.482Z,100686.31
2022-12-14T04:04:51.166Z,100689.66
2022-12-14T04:07:44.294Z,100683.16
2022-12-14T04:10:45.113Z,100676.47
2022-12-14T04:13:49.138Z,100677.66
2022-12-14T04:16:45.900Z,100671.59
2022-12-14T04:19:27.743Z,100668.00
2022-12-14T04:22:06.619Z,100666.03
2022-12-14T04:25:22.955Z,100666.03
2022-12-14T04:28:43.364Z,100656.41
2022-12-14T04:31:20.441Z,100656.09
2022-12-14T04:34:02.444Z,100654.59
2022-12-14T04:37:07.799Z,100648.78
2022-12-14T04:39:51.317Z,100643.31
2022-12-14T04:42:32.447Z,100641.63
2022-12-14T04:45:12.485Z,100644.91
2022-12-14T04:48:08.180Z,100644.16
2022-12-14T04:50:52.612Z,100645.81
2022-12-14T04:53:29.512Z,100644.22
2022-12-14T04:56:13.087Z,100642.00
2022-12-14T04:58:45.164Z,100642.19
2022-12-14T05:01:35.658Z,100634.78
2022-12-14T05:04:56.741Z,100641.72
2022-12-14T05:08:09.857Z,100638.28
2022-12-14T05:10:48.803Z,100637.16
2022-12-14T05:13:28.642Z,100634.53
2022-12-14T05:16:00.880Z,100631.19
2022-12-14T05:18:35.580Z,100632.94
2022-12-14T05:21:09.796Z,100632.00
2022-12-14T05:23:41.753Z,100627.97
2022-12-14T05:26:13.667Z,100628.13
2022-12-14T05:28:50.243Z,100632.81
2022-12-14T05:31:23.467Z,100623.66
2022-12-14T05:33:55.433Z,100624.53
2022-12-14T05:36:27.489Z,100631.72
2022-12-14T05:38:59.456Z,100627.56
2022-12-14T05:41:31.380Z,100619.13
2022-12-14T05:44:03.399Z,100623.25
2022-12-14T05:46:35.328Z,100622.47
2022-12-14T05:49:07.368Z,100618.41
2022-12-14T05:51:39.453Z,100611.09
2022-12-14T05:54:11.448Z,100605.44
2022-12-14T05:56:43.464Z,100606.50
2022-12-14T05:59:17.391Z,100605.84
2022-12-14T06:01:50.709Z,100599.09
2022-12-14T06:04:22.892Z,100603.47
2022-12-14T06:06:55.034Z,100594.06
2022-12-14T06:09:27.062Z,100592.47
2022-12-14T06:11:58.987Z,100590.47
2022-12-14T06:14:30.963Z,100594.34
2022-12-14T06:17:02.989Z,100589.88
2022-12-14T06:19:34.931Z,100589.81
2022-12-14T06:22:06.845Z,100588.22
2022-12-14T06:24:38.776Z,100592.69
2022-12-14T06:27:10.772Z,100583.28
2022-12-14T06:29:42.830Z,100585.97
2022-12-14T06:32:14.816Z,100587.84
2022-12-14T06:34:47.049Z,100592.31
2022-12-14T06:37:19.356Z,100585.63
2022-12-14T06:39:54.417Z,100595.03
2022-12-14T06:42:27.445Z,100592.38
2022-12-14T06:44:59.419Z,100589.69
2022-12-14T06:47:31.389Z,100592.31
2022-12-14T06:50:03.582Z,100592.38
2022-12-14T06:52:37.526Z,100587.22
2022-12-14T06:55:09.647Z,100583.78
2022-12-14T06:57:41.999Z,100587.28
2022-12-14T07:00:14.599Z,100583.94
2022-12-14T07:02:47.163Z,100582.25
2022-12-14T07:05:19.354Z,100580.50
2022-12-14T07:07:51.254Z,100577.88
2022-12-14T07:10:23.207Z,100568.56
2022-12-14T07:12:55.227Z,100573.03
2022-12-14T07:15:28.422Z,100568.72
2022-12-14T07:18:00.465Z,100572.22
2022-12-14T07:20:32.368Z,100563.63
2022-12-14T07:23:04.331Z,100562.81
2022-12-14T07:25:36.350Z,100566.31
2022-12-14T07:28:08.337Z,100561.06
2022-12-14T07:30:40.247Z,100561.78
2022-12-14T07:33:12.176Z,100557.41
2022-12-14T07:35:44.083Z,100547.94
2022-12-14T07:38:17.136Z,100556.38
2022-12-14T07:40:49.246Z,100552.94
2022-12-14T07:43:21.527Z,100552.16
2022-12-14T07:45:53.760Z,100550.22
2022-12-14T07:48:25.964Z,100550.13
2022-12-14T07:51:11.857Z,100551.88
2022-12-14T07:53:44.299Z,100543.44
2022-12-14T07:56:27.148Z,100548.63
2022-12-14T07:59:01.509Z,100546.94
2022-12-14T08:01:37.194Z,100549.50
2022-12-14T08:04:13.409Z,100546.19
2022-12-14T08:06:47.061Z,100551.97
2022-12-14T08:09:20.299Z,100559.59
2022-12-14T08:11:52.335Z,100549.25
2022-12-14T08:14:24.363Z,100556.91
2022-12-14T08:16:56.468Z,100556.03
2022-12-14T08:19:28.514Z,100558.50
2022-12-14T08:22:00.611Z,100557.69
2022-12-14T08:24:32.798Z,100562.00
2022-12-14T08:27:04.978Z,100548.47
2022-12-14T08:29:36.993Z,100558.66
2022-12-14T08:32:09.172Z,100550.41
2022-12-14T08:34:41.231Z,100556.59
2022-12-14T08:37:13.229Z,100556.69
2022-12-14T08:39:45.170Z,100555.09
2022-12-14T08:42:21.601Z,100546.72
2022-12-14T08:44:53.599Z,100544.41
2022-12-14T08:47:25.639Z,100553.09
2022-12-14T08:49:57.779Z,100540.63
2022-12-14T08:52:32.783Z,100539.75
2022-12-14T08:55:06.718Z,100541.44
2022-12-14T08:57:38.744Z,100533.84
2022-12-14T09:00:11.787Z,100527.00
2022-12-14T09:02:44.005Z,100532.25
2022-12-14T09:05:16.142Z,100531.84
2022-12-14T09:07:48.154Z,100528.63
2022-12-14T09:10:20.211Z,100528.06
2022-12-14T09:12:52.191Z,100520.78
2022-12-14T09:15:24.112Z,100527.19
2022-12-14T09:17:56.092Z,100520.53
2022-12-14T09:20:28.094Z,100518.91
2022-12-14T09:23:00.111Z,100509.88
2022-12-14T09:25:32.063Z,100517.81
2022-12-14T09:28:04.037Z,100513.16
2022-12-14T09:30:35.993Z,100516.66
2022-12-14T09:33:08.116Z,100514.41
2022-12-14T09:35:40.090Z,100512.22
2022-12-14T09:38:12.128Z,100509.06
2022-12-14T09:40:56.029Z,100517.88
2022-12-14T09:43:43.011Z,100512.19
2022-12-14T09:47:00.280Z,100518.53
2022-12-14T09:49:58.588Z,100505.16
2022-12-14T09:52:40.359Z,100499.59
2022-12-14T09:55:45.456Z,100499.16
2022-12-14T09:58:27.974Z,100489.00
2022-12-14T10:01:24.301Z,100491.03
2022-12-14T10:04:14.711Z,100482.16
2022-12-14T10:07:11.827Z,100481.88
2022-12-14T10:10:06.103Z,100481.34
2022-12-14T10:12:59.864Z,100492.03
2022-12-14T10:15:37.133Z,100478.69
2022-12-14T10:18:59.379Z,100475.56
2022-12-14T10:22:16.516Z,100479.38
2022-12-14T10:24:58.615Z,100473.56
2022-12-14T10:27:53.988Z,100464.53
2022-12-14T10:30:25.760Z,100458.97
2022-12-14T10:33:10.959Z,100458.22
2022-12-14T10:35:55.458Z,100458.47
2022-12-14T10:38:49.141Z,100451.34
2022-12-14T10:41:55.115Z,100449.78
2022-12-14T10:44:40.471Z,100450.09
2022-12-14T10:47:24.594Z,100452.84
2022-12-14T10:50:27.516Z,100453.03
2022-12-14T10:53:05.696Z,100454.06
2022-12-14T10:55:41.791Z,100453.50
2022-12-14T10:58:13.804Z,100454.53
2022-12-14T11:00:45.843Z,100462.47
2022-12-14T11:03:17.932Z,100454.72
2022-12-14T11:06:12.901Z,100445.63
2022-12-14T11:08:49.430Z,100435.63
2022-12-14T11:11:25.251Z,100435.06
2022-12-14T11:14:09.076Z,100432.00
2022-12-14T11:16:41.928Z,100428.69
2022-12-14T11:19:24.363Z,100426.28
2022-12-14T11:22:22.186Z,100424.75
2022-12-14T11:24:54.809Z,100422.41
2022-12-14T11:27:26.875Z,100422.63
2022-12-14T11:29:59.079Z,100421.88
2022-12-14T11:32:31.201Z,100417.66
2022-12-14T11:35:03.425Z,100407.47
2022-12-14T11:37:35.378Z,100404.94
2022-12-14T11:40:23.084Z,100399.94
2022-12-14T11:43:03.714Z,100410.13
2022-12-14T11:45:37.351Z,100411.88
2022-12-14T11:48:15.309Z,100408.69
2022-12-14T11:50:49.476Z,100411.94
2022-12-14T11:53:23.032Z,100417.06
2022-12-14T11:55:57.692Z,100419.41
2022-12-14T11:58:34.396Z,100417.94
2022-12-14T12:01:14.956Z,100413.69
2022-12-14T12:04:01.284Z,100416.56
2022-12-14T12:06:33.385Z,100413.22
2022-12-14T12:09:31.125Z,100420.75
2022-12-14T12:12:03.910Z,100418.34
2022-12-14T12:14:38.845Z,100417.75
2022-12-14T12:17:39.103Z,100413.59
2022-12-14T12:20:28.532Z,100411.91
2022-12-14T12:23:11.788Z,100408.59
2022-12-14T12:25:47.659Z,100404.34
2022-12-14T12:28:30.345Z,100393.06
2022-12-14T12:31:15.108Z,100393.84
2022-12-14T12:33:56.827Z,100386.19
2022-12-14T12:36:32.409Z,100392.25
2022-12-14T12:39:14.907Z,100386.38
2022-12-14T12:42:11.966Z,100390.13
2022-12-14T12:44:57.995Z,100389.09
2022-12-14T12:47:46.089Z,100399.31
2022-12-14T12:50:32.478Z,100405.25
2022-12-14T12:53:47.977Z,100395.03
2022-12-14T12:56:48.286Z,100395.97
2022-12-14T12:59:31.434Z,100390.88
2022-12-14T13:02:35.435Z,100395.97
2022-12-14T13:05:45.583Z,100392.63
2022-12-14T13:08:24.159Z,100395.16
2022-12-14T13:11:25.054Z,100395.16
2022-12-14T13:14:00.647Z,100385.56
2022-12-14T13:16:37.284Z,100384.72
2022-12-14T13:19:51.728Z,100395.09
2022-12-14T13:22:33.920Z,100389.00
2022-12-14T13:25:52.702Z,100385.56
2022-12-14T13:28:52.231Z,100383.84
2022-12-14T13:32:17.833Z,100371.91
2022-12-14T13:35:28.681Z,100376.09
2022-12-14T13:38:23.480Z,100372.34
2022-12-14T13:41:39.224Z,100366.38
2022-12-14T13:44:45.028Z,100368.13
2022-12-14T13:47:22.561Z,100369.66
2022-12-14T13:52:59.745Z,100365.34
2022-12-14T13:55:36.419Z,100364.63
2022-12-14T13:58:44.388Z,100356.06
2022-12-14T14:01:48.512Z,100358.59
2022-12-14T14:04:29.982Z,100359.47
2022-12-14T14:07:23.621Z,100360.13
2022-12-14T14:09:55.500Z,100363.63
2022-12-14T14:12:41.717Z,100360.22
2022-12-14T14:15:38.110Z,100356.63
2022-12-14T14:18:21.848Z,100364.13
2022-12-14T14:21:14.072Z,100371.81
2022-12-14T14:24:06.547Z,100363.25
2022-12-14T14:26:44.621Z,100366.47
2022-12-14T14:29:23.181Z,100362.06
2022-12-14T14:32:00.843Z,100363.72
2022-12-14T14:34:44.901Z,100360.22
2022-12-14T14:37:26.541Z,100358.47
2022-12-14T14:40:07.597Z,100364.41
2022-12-14T14:43:19.684Z,100361.03
2022-12-14T14:45:55.661Z,100370.31
2022-12-14T14:48:37.748Z,100366.81
2022-12-14T14:51:27.113Z,100379.50
2022-12-14T14:54:56.116Z,100380.97
2022-12-14T14:57:59.556Z,100367.78
2022-12-14T15:00:41.893Z,100366.91
2022-12-14T15:03:15.219Z,100371.81
2022-12-14T15:05:49.755Z,100374.22
2022-12-14T15:08:40.401Z,100376.84
2022-12-14T15:11:21.845Z,100376.69
2022-12-14T15:14:32.737Z,100383.16
2022-12-14T15:17:24.186Z,100378.56
2022-12-14T15:20:02.524Z,100383.69
2022-12-14T15:22:42.535Z,100379.44
2022-12-14T15:25:29.731Z,100380.09
2022-12-14T15:28:07.661Z,100376.41
2022-12-14T15:30:47.894Z,100383.19
2022-12-14T15:33:25.272Z,100384.88
2022-12-14T15:36:08.441Z,100390.00
2022-12-14T15:38:40.369Z,100387.47
2022-12-14T15:41:17.461Z,100395.97
2022-12-14T15:43:55.112Z,100396.63
2022-12-14T15:46:33.951Z,100399.00
2022-12-14T15:49:21.703Z,100402.25
2022-12-14T15:51:55.211Z,100411.75
2022-12-14T15:54:28.186Z,100407.44
2022-12-14T15:57:00.588Z,100407.44
2022-12-14T15:59:36.224Z,100409.94
2022-12-14T16:02:33.283Z,100409.84
2022-12-14T16:05:06.562Z,100407.13
2022-12-14T16:07:44.429Z,100408.75
2022-12-14T16:10:26.080Z,100400.88
2022-12-14T16:13:06.456Z,100403.31
2022-12-14T16:15:38.635Z,100403.28
2022-12-14T16:18:14.669Z,100403.16
2022-12-14T16:20:58.680Z,100399.91
2022-12-14T16:23:41.750Z,100397.22
2022-12-14T16:26:27.212Z,100403.28
2022-12-14T16:29:20.154Z,100404.97
2022-12-14T16:32:04.843Z,100409.78
2022-12-14T16:34:36.900Z,100424.13
2022-12-14T16:37:33.870Z,100423.78
2022-12-14T16:40:10.651Z,100424.09
2022-12-14T16:42:49.751Z,100419.03
2022-12-14T16:45:42.986Z,100409.78
2022-12-14T16:48:19.928Z,100409.84
2022-12-14T16:50:58.056Z,100408.16
2022-12-14T16:53:33.439Z,100407.22
2022-12-14T16:56:19.492Z,100396.94
2022-12-14T16:59:07.006Z,100407.13
2022-12-14T17:01:45.356Z,100402.06
2022-12-14T17:04:19.425Z,100400.06
2022-12-14T17:06:56.421Z,100399.94
2022-12-14T17:09:30.883Z,100397.19
2022-12-14T17:12:14.429Z,100400.50
2022-12-14T17:14:49.941Z,100401.09
2022-12-14T17:17:33.306Z,100407.06
2022-12-14T17:20:13.634Z,100402.84
2022-12-14T17:22:49.341Z,100401.97
2022-12-14T17:25:21.836Z,100410.44
2022-12-14T17:27:54.018Z,100408.56
2022-12-14T17:30:26.830Z,100409.13
2022-12-14T17:32:58.955Z,100411.38
2022-12-14T17:35:34.069Z,100409.81
2022-12-14T17:38:16.274Z,100407.38
2022-12-14T17:40:53.853Z,100410.63
2022-12-14T17:43:28.130Z,100407.13
2022-12-14T17:46:03.446Z,100405.56
2022-12-14T17:48:37.367Z,100408.75
2022-12-14T17:51:27.514Z,100403.44
2022-12-14T17:53:59.590Z,100403.06
2022-12-14T17:56:31.557Z,100410.91
2022-12-14T17:59:03.492Z,100407.47
2022-12-14T18:01:36.152Z,100412.19
2022-12-14T18:04:08.271Z,100410.47
2022-12-14T18:06:40.448Z,100408.56
2022-12-14T18:09:13.073Z,100405.34
2022-12-14T18:12:06.621Z,100411.19
2022-12-14T18:14:36.969Z,100406.44
2022-12-14T18:17:11.631Z,100413.63
2022-12-14T18:19:43.792Z,100413.81
2022-12-14T18:22:16.292Z,100416.44
2022-12-14T18:24:49.315Z,100422.16
2022-12-14T18:27:21.480Z,100421.28
2022-12-14T18:29:53.557Z,100422.16
2022-12-14T18:32:25.512Z,100430.72
2022-12-14T18:34:57.518Z,100430.31
2022-12-14T18:37:32.736Z,100426.53
2022-12-14T18:40:05.764Z,100423.75
2022-12-14T18:42:37.693Z,100419.81
2022-12-14T18:45:29.793Z,100415.66
2022-12-14T18:48:02.132Z,100418.88
2022-12-14T18:50:37.247Z,100412.72
2022-12-14T18:53:18.645Z,100414.34
2022-12-14T18:55:50.805Z,100426.09
2022-12-14T18:58:28.569Z,100428.38
2022-12-14T19:01:01.184Z,100425.75
2022-12-14T19:03:33.801Z,100428.25
2022-12-14T19:09:04.680Z,100437.88
2022-12-14T19:11:40.197Z,100436.84
2022-12-14T19:14:12.569Z,100440.00
2022-12-14T19:16:44.597Z,100447.53
2022-12-14T19:19:19.956Z,100461.19
2022-12-14T19:21:54.809Z,100463.00
2022-12-14T19:24:26.744Z,100458.69
2022-12-14T19:26:58.919Z,100468.78
2022-12-14T19:29:30.935Z,100461.84
2022-12-14T19:32:05.625Z,100455.13
2022-12-14T19:34:38.030Z,100460.22
2022-12-14T19:37:10.016Z,100453.44
2022-12-14T19:39:41.983Z,100463.97
2022-12-14T19:42:14.099Z,100457.25
2022-12-14T19:44:46.811Z,100463.09
2022-12-14T19:47:21.324Z,100462.22
2022-12-14T19:49:53.281Z,100465.44
2022-12-14T19:52:25.947Z,100463.09
2022-12-14T19:54:57.880Z,100463.63
2022-12-14T19:57:29.976Z,100469.53
2022-12-14T20:00:02.643Z,100464.50
2022-12-14T20:02:35.892Z,100468.06
2022-12-14T20:05:08.685Z,100461.72
2022-12-14T20:07:43.953Z,100453.50
2022-12-14T20:10:16.478Z,100450.63
2022-12-14T20:12:48.480Z,100463.19
2022-12-14T20:15:20.440Z,100444.81
2022-12-14T20:17:52.477Z,100446.47
2022-12-14T20:20:24.446Z,100447.34
2022-12-14T20:22:56.439Z,100455.59
2022-12-14T20:25:28.499Z,100449.47
2022-12-14T20:28:00.461Z,100450.94
2022-12-14T20:30:33.893Z,100452.69
2022-12-14T20:33:06.270Z,100459.25
2022-12-14T20:35:38.427Z,100455.59
2022-12-14T20:38:10.713Z,100447.78
2022-12-14T20:40:42.681Z,100453.19
2022-12-14T20:43:14.617Z,100456.47
2022-12-14T20:45:46.777Z,100455.66
2022-12-14T20:48:18.799Z,100462.94
2022-12-14T20:50:55.000Z,100461.13
2022-12-14T20:53:31.210Z,100456.03
2022-12-14T20:56:04.965Z,100462.72
2022-12-14T20:58:36.949Z,100462.50
2022-12-14T21:01:13.411Z,100460.63
2022-12-14T21:03:47.292Z,100464.25
2022-12-14T21:06:22.692Z,100461.34
2022-12-14T21:09:10.219Z,100465.72
2022-12-14T21:12:07.686Z,100476.00
2022-12-14T21:14:42.713Z,100477.59
2022-12-14T21:17:15.125Z,100481.84
2022-12-14T21:19:47.272Z,100489.50
2022-12-14T21:22:26.112Z,100486.78
2022-12-14T21:25:06.629Z,100484.25
2022-12-14T21:27:39.854Z,100492.03
2022-12-14T21:30:12.740Z,100502.97
2022-12-14T21:32:44.724Z,100490.56
2022-12-14T21:35:18.491Z,100485.47
2022-12-14T21:37:50.418Z,100488.47
2022-12-14T21:40:40.805Z,100489.41
2022-12-14T21:43:12.898Z,100492.31
2022-12-14T21:45:46.200Z,100489.53
2022-12-14T21:48:18.310Z,100488.03
2022-12-14T21:50:50.277Z,100492.25
2022-12-14T21:53:22.275Z,100485.16
2022-12-14T21:56:14.270Z,100481.50
2022-12-14T21:58:54.104Z,100479.91
2022-12-14T22:01:26.248Z,100486.28
2022-12-14T22:03:58.212Z,100496.16
2022-12-14T22:06:30.766Z,100485.75
2022-12-14T22:09:04.354Z,100498.34
2022-12-14T22:11:36.382Z,100492.28
2022-12-14T22:14:12.996Z,100496.91
2022-12-14T22:16:45.300Z,100494.66
2022-12-14T22:19:23.660Z,100488.81
2022-12-14T22:21:55.737Z,100492.31
2022-12-14T22:24:29.122Z,100492.25
2022-12-14T22:27:01.151Z,100491.94
2022-12-14T22:29:33.181Z,100489.97
2022-12-14T22:32:06.261Z,100491.56
2022-12-14T22:34:38.274Z,100496.59
2022-12-14T22:37:11.514Z,100500.00
2022-12-14T22:39:43.585Z,100501.63
2022-12-14T22:42:16.460Z,100492.44
2022-12-14T22:44:49.178Z,100502.22
2022-12-14T22:47:21.154Z,100493.47
2022-12-14T22:49:53.120Z,100492.03
2022-12-14T22:52:25.257Z,100492.81
2022-12-14T22:54:57.596Z,100491.44
2022-12-14T22:57:30.727Z,100496.16
2022-12-14T23:00:14.529Z,100505.16
2022-12-14T23:02:48.634Z,100507.31
2022-12-14T23:05:20.943Z,100510.59
2022-12-14T23:07:53.505Z,100517.38
2022-12-14T23:10:43.955Z,100510.69
2022-12-14T23:13:34.299Z,100515.59
2022-12-14T23:16:25.434Z,100512.25
2022-12-14T23:19:15.713Z,100513.19
2022-12-14T23:22:06.337Z,100513.13
2022-12-14T23:24:57.244Z,100521.06
2022-12-14T23:27:47.821Z,100510.19
2022-12-14T23:30:38.315Z,100501.38
2022-12-14T23:33:29.253Z,100502.81
2022-12-14T23:36:20.151Z,100505.16
2022-12-14T23:39:10.682Z,100493.91
2022-12-14T23:42:01.730Z,100493.91
2022-12-14T23:44:52.228Z,100500.34
2022-12-14T23:47:42.514Z,100491.75
2022-12-14T23:50:33.240Z,100490.88
2022-12-14T23:53:25.205Z,100479.72
2022-12-14T23:56:15.738Z,100488.63
2022-12-14T23:59:10.293Z,100479.06
